Time;durP1;ratioP1;P1;durP2;ratioP2;P2;SDS_P1;SDS_P2;PMS_P1;PMS_P2;Temp;Humidity;BMP_temperature;BMP_pressure;BME280_temperature;BME280_humidity;BME280_pressure;Samples;Min_cycle;Max_cycle;Signal;HPM_P1;HPM_P2
2023/06/27 00:00:45;;;;;;;5.70;4.90;;;26.40;63.80;;;;;;227294;1263;22557;-49
2023/06/27 00:06:09;;;;;;;5.30;4.80;;;26.50;63.40;;;;;;223755;1264;25220;-51
2023/06/27 00:11:14;;;;;;;5.20;4.70;;;26.60;63.20;;;;;;223131;1260;23911;-49
2023/06/27 00:16:19;;;;;;;5.10;4.50;;;26.50;63.30;;;;;;222655;1267;22778;-52
2023/06/27 00:21:28;;;;;;;5.20;4.70;;;26.40;63.60;;;;;;222310;1254;22507;-50
2023/06/27 00:26:33;;;;;;;5.50;4.90;;;26.40;64.00;;;;;;222530;1257;22762;-53
2023/06/27 00:31:37;;;;;;;5.50;5.00;;;26.30;64.00;;;;;;222576;1267;24094;-54
2023/06/27 00:36:43;;;;;;;6.10;5.10;;;26.30;64.00;;;;;;222487;1264;25249;-50
2023/06/27 00:41:47;;;;;;;4.90;4.50;;;26.30;64.10;;;;;;222351;1268;22514;-53
2023/06/27 00:46:52;;;;;;;5.20;4.70;;;26.20;64.20;;;;;;222586;1267;22518;-52
2023/06/27 00:51:58;;;;;;;4.30;4.00;;;26.20;64.40;;;;;;222473;1263;22747;-52
2023/06/27 00:57:02;;;;;;;5.00;4.60;;;26.10;64.50;;;;;;222518;1261;24225;-49
2023/06/27 01:02:09;;;;;;;5.50;5.00;;;26.00;64.60;;;;;;222394;1267;25299;-51
2023/06/27 01:07:32;;;;;;;5.80;4.50;;;26.00;64.50;;;;;;222476;1264;24183;-52
2023/06/27 01:12:45;;;;;;;6.10;4.80;;;26.00;64.20;;;;;;222353;1254;22639;-52
2023/06/27 01:17:51;;;;;;;6.40;4.70;;;25.90;63.90;;;;;;222192;1269;23761;-53
2023/06/27 01:23:09;;;;;;;4.60;4.20;;;25.90;63.80;;;;;;222170;1261;24311;-52
2023/06/27 01:28:14;;;;;;;6.00;4.80;;;26.00;63.30;;;;;;222472;1267;22623;-53
2023/06/27 01:33:32;;;;;;;4.40;4.10;;;26.10;63.30;;;;;;222304;1268;24244;-51
2023/06/27 01:38:46;;;;;;;6.90;4.20;;;26.10;62.90;;;;;;222173;1260;22527;-50
2023/06/27 01:43:54;;;;;;;6.60;4.20;;;26.10;62.80;;;;;;222314;1264;24199;-52
2023/06/27 01:48:59;;;;;;;5.20;4.60;;;26.10;62.90;;;;;;222337;1264;25476;-52
2023/06/27 01:54:05;;;;;;;8.20;4.70;;;26.00;62.90;;;;;;222217;1260;22580;-53
2023/06/27 01:59:10;;;;;;;5.40;4.30;;;26.00;62.80;;;;;;226245;1264;26551;-53
2023/06/27 02:04:14;;;;;;;8.70;4.30;;;26.00;62.60;;;;;;226756;1261;22541;-49
2023/06/27 02:09:18;;;;;;;6.00;4.20;;;26.20;62.10;;;;;;222622;1261;22624;-52
2023/06/27 02:14:22;;;;;;;5.30;4.10;;;26.20;62.70;;;;;;224312;1257;186817;-50
2023/06/27 02:19:27;;;;;;;4.90;4.50;;;26.20;62.20;;;;;;222321;1260;24260;-50
2023/06/27 02:24:31;;;;;;;6.50;4.70;;;26.10;62.10;;;;;;222803;1268;23003;-51
2023/06/27 02:29:37;;;;;;;4.90;4.20;;;26.10;62.20;;;;;;222378;1267;22518;-49
2023/06/27 02:34:41;;;;;;;5.30;4.50;;;26.10;62.40;;;;;;222553;1264;24260;-49
2023/06/27 02:39:50;;;;;;;5.60;4.50;;;26.10;62.30;;;;;;222472;1267;22527;-55
2023/06/27 02:44:54;;;;;;;5.90;5.20;;;26.00;62.40;;;;;;222308;1260;22524;-51
2023/06/27 02:49:59;;;;;;;6.20;4.10;;;26.10;62.40;;;;;;222591;1264;24251;-49
2023/06/27 02:55:05;;;;;;;9.00;5.10;;;26.00;62.40;;;;;;222738;1261;24180;-51
2023/06/27 03:00:10;;;;;;;7.70;5.00;;;26.00;62.40;;;;;;222490;1261;22917;-54
2023/06/27 03:05:14;;;;;;;5.00;4.60;;;26.00;62.40;;;;;;222663;1268;22909;-50
2023/06/27 03:10:18;;;;;;;5.90;5.30;;;26.00;62.50;;;;;;222684;1261;22512;-51
2023/06/27 03:15:22;;;;;;;7.90;5.00;;;26.00;63.00;;;;;;222513;1253;23011;-50
2023/06/27 03:20:28;;;;;;;5.60;5.10;;;26.00;62.80;;;;;;222178;1254;22550;-49
2023/06/27 03:25:32;;;;;;;7.20;5.30;;;26.00;63.10;;;;;;222612;1264;22637;-54
2023/06/27 03:30:43;;;;;;;9.00;5.50;;;26.00;63.10;;;;;;222427;1254;22517;-49
2023/06/27 03:35:48;;;;;;;6.20;4.90;;;26.00;62.60;;;;;;222370;1253;22520;-52
2023/06/27 03:40:53;;;;;;;9.50;5.10;;;26.00;62.80;;;;;;222660;1267;22744;-53
2023/06/27 03:45:57;;;;;;;6.00;5.30;;;26.00;62.90;;;;;;222477;1251;25100;-52
2023/06/27 03:51:02;;;;;;;11.80;5.00;;;26.00;62.80;;;;;;222435;1257;24235;-50
2023/06/27 03:56:06;;;;;;;6.30;5.20;;;26.00;62.40;;;;;;222408;1260;24190;-52
2023/06/27 04:01:12;;;;;;;5.20;4.60;;;26.00;62.40;;;;;;222363;1263;22520;-52
2023/06/27 04:06:18;;;;;;;5.00;4.30;;;26.00;62.80;;;;;;222244;1260;22504;-52
2023/06/27 04:11:22;;;;;;;7.40;4.70;;;26.00;62.00;;;;;;222336;1260;22518;-53
2023/06/27 04:16:30;;;;;;;6.40;4.60;;;26.00;61.90;;;;;;222410;1246;24176;-52
2023/06/27 04:21:35;;;;;;;10.00;4.70;;;26.00;61.90;;;;;;222603;1263;22557;-54
2023/06/27 04:26:42;;;;;;;6.10;4.20;;;26.00;61.90;;;;;;222752;1260;24189;-52
2023/06/27 04:31:46;;;;;;;6.20;4.30;;;25.90;61.40;;;;;;222419;1260;25637;-53
2023/06/27 04:36:51;;;;;;;5.00;4.50;;;25.90;61.40;;;;;;222307;1260;22626;-54
2023/06/27 04:41:56;;;;;;;8.20;4.40;;;25.90;61.30;;;;;;222433;1261;25227;-51
2023/06/27 04:47:00;;;;;;;8.40;4.70;;;25.90;61.20;;;;;;222515;1254;24337;-53
2023/06/27 04:52:05;;;;;;;5.80;4.20;;;25.80;60.90;;;;;;222678;1264;25575;-54
2023/06/27 04:57:09;;;;;;;6.00;4.40;;;25.80;60.50;;;;;;222298;1262;22635;-50
2023/06/27 05:02:15;;;;;;;9.10;4.00;;;25.70;60.40;;;;;;222353;1260;24336;-51
2023/06/27 05:07:20;;;;;;;7.60;3.90;;;25.70;59.80;;;;;;222460;1266;22512;-49
2023/06/27 05:12:24;;;;;;;7.90;3.40;;;25.70;59.60;;;;;;222615;1260;22570;-51
2023/06/27 05:17:28;;;;;;;6.40;3.80;;;25.70;59.40;;;;;;222667;1263;25398;-50
2023/06/27 05:22:35;;;;;;;6.90;3.60;;;25.70;59.60;;;;;;222434;1263;22565;-52
2023/06/27 05:27:40;;;;;;;5.30;3.50;;;25.70;59.50;;;;;;222398;1265;22504;-51
2023/06/27 05:32:44;;;;;;;7.20;3.10;;;25.70;58.90;;;;;;221182;1274;22571;-49
2023/06/27 05:37:48;;;;;;;7.10;2.90;;;25.60;59.00;;;;;;221073;1265;24199;-50
2023/06/27 05:42:54;;;;;;;3.30;2.70;;;25.70;59.00;;;;;;221925;1261;25157;-54
2023/06/27 05:47:58;;;;;;;7.20;3.40;;;25.80;59.80;;;;;;221748;1268;24285;-51
2023/06/27 05:53:02;;;;;;;5.10;2.70;;;26.00;59.80;;;;;;222885;1266;24163;-51
2023/06/27 05:58:07;;;;;;;10.00;3.70;;;25.80;59.00;;;;;;222800;1260;24283;-52
2023/06/27 06:03:13;;;;;;;5.80;2.80;;;25.80;58.30;;;;;;223010;1263;22581;-51
2023/06/27 06:08:17;;;;;;;5.40;3.20;;;25.80;60.10;;;;;;223066;1267;22524;-50
2023/06/27 06:13:21;;;;;;;8.60;3.20;;;25.90;58.60;;;;;;222901;1260;25256;-51
2023/06/27 06:18:25;;;;;;;5.60;3.20;;;25.90;59.90;;;;;;223481;1268;24189;-48
2023/06/27 06:23:29;;;;;;;7.20;2.90;;;25.90;59.00;;;;;;223313;1264;24173;-53
2023/06/27 06:28:33;;;;;;;9.60;2.40;;;26.00;59.10;;;;;;222834;1260;23973;-52
2023/06/27 06:33:38;;;;;;;6.40;2.70;;;26.00;59.00;;;;;;222672;1254;22498;-52
2023/06/27 06:38:43;;;;;;;10.80;2.70;;;26.10;59.50;;;;;;222488;1257;23777;-51
2023/06/27 06:43:47;;;;;;;10.20;2.60;;;26.20;59.00;;;;;;222328;1260;22510;-51
2023/06/27 06:48:51;;;;;;;10.40;2.80;;;25.80;57.90;;;;;;222299;1263;23619;-53
2023/06/27 06:53:56;;;;;;;8.20;2.30;;;25.70;57.10;;;;;;222735;1260;22527;-50
2023/06/27 06:59:02;;;;;;;9.00;2.70;;;25.70;56.10;;;;;;222325;1260;22776;-47
2023/06/27 07:04:07;;;;;;;15.00;2.70;;;25.70;55.40;;;;;;222342;1261;25306;-53
2023/06/27 07:09:11;;;;;;;6.40;1.80;;;25.70;55.60;;;;;;226976;1260;23893;-47
2023/06/27 07:14:17;;;;;;;5.00;2.20;;;25.60;54.30;;;;;;222234;1246;24251;-50
2023/06/27 07:19:21;;;;;;;11.20;2.60;;;25.50;55.00;;;;;;225158;1266;24283;-52
2023/06/27 07:24:26;;;;;;;7.40;2.20;;;25.50;53.60;;;;;;222417;1260;22515;-51
2023/06/27 07:29:30;;;;;;;2.40;1.60;;;25.60;54.50;;;;;;222465;1261;22512;-52
2023/06/27 07:34:36;;;;;;;3.20;1.90;;;25.70;54.30;;;;;;222452;1264;22856;-51
2023/06/27 07:39:40;;;;;;;4.00;2.00;;;25.70;55.10;;;;;;221960;1266;24294;-49
2023/06/27 07:44:45;;;;;;;3.70;1.90;;;25.80;55.10;;;;;;222471;1266;24291;-51
2023/06/27 07:49:49;;;;;;;2.70;2.00;;;25.90;55.00;;;;;;222109;1268;24225;-53
2023/06/27 07:54:53;;;;;;;7.00;2.00;;;26.00;55.30;;;;;;222437;1266;22543;-52
2023/06/27 07:59:57;;;;;;;5.30;1.90;;;26.10;55.50;;;;;;222565;1263;22504;-52
2023/06/27 08:05:02;;;;;;;4.70;1.80;;;26.10;55.70;;;;;;222490;1263;24189;-51
2023/06/27 08:10:07;;;;;;;3.80;1.60;;;26.10;56.10;;;;;;222504;1261;24504;-53
2023/06/27 08:15:11;;;;;;;3.90;2.00;;;26.00;56.10;;;;;;222374;1263;25374;-53
2023/06/27 08:20:18;;;;;;;3.60;1.80;;;26.00;56.20;;;;;;222267;1265;24171;-52
2023/06/27 08:25:25;;;;;;;3.90;1.80;;;26.10;56.10;;;;;;222697;1264;24226;-54
2023/06/27 08:36:51;;;;;;;4.80;1.60;;;26.10;55.90;;;;;;222774;1254;22504;-54
2023/06/27 08:41:57;;;;;;;4.80;1.90;;;26.20;56.00;;;;;;222683;1260;22594;-52
2023/06/27 08:47:05;;;;;;;3.10;1.80;;;26.20;56.10;;;;;;222339;1263;24320;-52
2023/06/27 08:52:13;;;;;;;2.70;1.80;;;26.20;56.10;;;;;;222454;1257;22511;-51
2023/06/27 08:57:21;;;;;;;3.00;1.60;;;26.20;56.40;;;;;;222485;1263;24304;-54
2023/06/27 09:02:26;;;;;;;4.90;2.20;;;26.20;56.00;;;;;;222552;1264;24186;-51
2023/06/27 09:07:33;;;;;;;3.90;2.10;;;26.30;55.90;;;;;;222369;1256;23907;-53
2023/06/27 09:12:39;;;;;;;3.90;1.80;;;26.20;56.00;;;;;;222560;1263;22538;-53
2023/06/27 09:17:43;;;;;;;5.40;2.20;;;26.30;56.00;;;;;;222848;1260;22973;-52
2023/06/27 09:22:48;;;;;;;2.00;1.70;;;26.20;55.80;;;;;;222253;1254;24184;-54
2023/06/27 09:27:53;;;;;;;3.90;2.40;;;26.10;55.80;;;;;;222347;1247;22548;-54
2023/06/27 09:32:59;;;;;;;3.10;2.50;;;26.20;55.70;;;;;;222375;1254;25600;-52
2023/06/27 09:38:08;;;;;;;3.40;1.80;;;26.20;55.80;;;;;;222613;1261;22597;-56
2023/06/27 09:43:15;;;;;;;6.70;2.40;;;26.20;55.70;;;;;;222577;1253;24212;-53
2023/06/27 09:48:19;;;;;;;2.70;2.00;;;26.20;55.70;;;;;;222517;1260;22798;-49
2023/06/27 09:53:23;;;;;;;3.00;2.10;;;26.30;55.70;;;;;;222356;1264;22504;-55
2023/06/27 09:58:29;;;;;;;4.10;1.80;;;26.30;55.60;;;;;;222755;1254;25412;-52
2023/06/27 10:03:34;;;;;;;3.00;2.00;;;26.30;55.40;;;;;;222612;1260;22507;-53
2023/06/27 10:08:39;;;;;;;3.50;2.10;;;26.40;55.80;;;;;;222530;1261;22532;-51
2023/06/27 10:13:45;;;;;;;3.30;2.00;;;26.40;55.80;;;;;;222451;1260;22516;-52
2023/06/27 10:18:49;;;;;;;2.10;1.70;;;26.40;55.80;;;;;;222255;1260;22523;-51
2023/06/27 10:23:58;;;;;;;2.20;1.70;;;26.40;55.80;;;;;;222343;1265;22983;-56
2023/06/27 10:29:13;;;;;;;2.30;2.00;;;26.40;55.50;;;;;;222351;1260;22534;-53
2023/06/27 10:34:20;;;;;;;4.00;1.80;;;26.40;55.50;;;;;;222366;1256;23973;-54
2023/06/27 10:39:32;;;;;;;2.80;1.80;;;26.50;55.50;;;;;;223007;1263;23881;-53
2023/06/27 10:45:10;;;;;;;2.90;1.90;;;26.50;55.20;;;;;;222335;1264;22782;-54
2023/06/27 10:50:20;;;;;;;2.80;1.80;;;26.50;55.30;;;;;;222603;1257;23425;-52
2023/06/27 10:55:29;;;;;;;1.90;1.70;;;26.50;55.60;;;;;;222423;1261;22522;-54
2023/06/27 11:00:34;;;;;;;5.20;1.60;;;26.50;55.70;;;;;;222370;1257;24597;-52
2023/06/27 11:05:54;;;;;;;1.70;1.60;;;26.50;55.50;;;;;;222592;1260;22507;-54
2023/06/27 11:11:09;;;;;;;2.30;1.80;;;26.40;55.70;;;;;;222439;1260;25420;-53
2023/06/27 11:16:13;;;;;;;6.30;1.60;;;26.50;55.70;;;;;;222649;1263;22510;-55
2023/06/27 11:21:17;;;;;;;2.80;2.20;;;26.50;55.50;;;;;;222507;1261;22504;-54
2023/06/27 11:26:23;;;;;;;8.10;2.00;;;26.40;54.10;;;;;;222398;1260;22561;-53
2023/06/27 11:31:27;;;;;;;3.50;1.80;;;26.30;52.80;;;;;;222358;1264;24193;-52
2023/06/27 11:36:36;;;;;;;4.40;1.40;;;26.20;51.60;;;;;;222487;1264;22507;-51
2023/06/27 11:41:42;;;;;;;4.70;1.60;;;26.10;49.80;;;;;;222387;1260;22523;-54
2023/06/27 11:46:54;;;;;;;3.40;1.40;;;26.00;49.10;;;;;;222405;1264;22734;-59
2023/06/27 11:51:59;;;;;;;2.70;1.30;;;25.70;46.90;;;;;;222399;1260;22593;-54
2023/06/27 11:57:03;;;;;;;3.10;1.40;;;25.80;46.60;;;;;;222466;1256;22512;-57
2023/06/27 12:02:09;;;;;;;2.10;1.40;;;25.70;46.40;;;;;;222557;1263;25429;-51
2023/06/27 12:07:19;;;;;;;4.30;1.60;;;25.60;45.80;;;;;;222205;1263;22527;-55
2023/06/27 12:12:23;;;;;;;2.00;1.30;;;25.50;45.00;;;;;;222784;1262;22524;-56
2023/06/27 12:17:27;;;;;;;6.70;1.50;;;25.40;45.60;;;;;;222322;1254;24187;-55
2023/06/27 12:22:32;;;;;;;9.30;2.00;;;25.50;44.80;;;;;;222523;1266;22636;-54
2023/06/27 12:27:36;;;;;;;6.80;1.30;;;25.50;44.30;;;;;;222393;1254;22527;-53
2023/06/27 12:32:41;;;;;;;2.30;1.30;;;25.40;44.20;;;;;;222205;1266;22602;-49
2023/06/27 12:37:51;;;;;;;7.60;1.30;;;25.20;42.70;;;;;;222028;1263;23945;-54
2023/06/27 12:42:57;;;;;;;3.20;1.20;;;25.10;42.60;;;;;;222367;1264;22517;-55
2023/06/27 12:48:04;;;;;;;2.00;1.10;;;25.20;42.40;;;;;;222235;1261;22514;-57
2023/06/27 12:53:08;;;;;;;5.50;1.20;;;25.10;41.80;;;;;;222044;1254;22507;-58
2023/06/27 12:58:13;;;;;;;3.40;1.10;;;25.00;41.30;;;;;;222348;1256;24274;-58
2023/06/27 13:03:18;;;;;;;3.50;1.00;;;24.90;40.60;;;;;;222046;1265;24207;-58
2023/06/27 13:08:22;;;;;;;2.50;1.20;;;24.90;41.00;;;;;;222239;1267;22509;-53
2023/06/27 13:13:27;;;;;;;1.30;1.10;;;25.10;42.10;;;;;;222215;1263;22511;-57
2023/06/27 13:18:34;;;;;;;2.10;1.20;;;25.10;42.00;;;;;;222141;1266;24749;-59
2023/06/27 13:23:39;;;;;;;2.10;1.40;;;25.20;42.40;;;;;;222528;1263;25225;-53
2023/06/27 13:28:44;;;;;;;5.00;1.20;;;25.00;43.30;;;;;;225279;1263;22521;-51
2023/06/27 13:33:49;;;;;;;6.30;1.50;;;24.90;44.30;;;;;;222304;1266;25373;-50
2023/06/27 13:38:53;;;;;;;6.00;1.20;;;25.20;44.60;;;;;;222109;1253;25906;-50
2023/06/27 13:43:57;;;;;;;2.00;1.20;;;25.40;45.20;;;;;;222529;1263;24204;-50
2023/06/27 13:49:08;;;;;;;4.30;1.30;;;25.40;46.00;;;;;;222725;1263;24187;-48
2023/06/27 13:54:12;;;;;;;4.40;1.70;;;25.40;46.70;;;;;;222325;1266;22512;-52
2023/06/27 13:59:16;;;;;;;5.70;1.90;;;25.60;46.70;;;;;;222402;1260;22511;-52
2023/06/27 14:04:21;;;;;;;5.10;1.90;;;25.60;47.40;;;;;;222547;1261;22526;-50
2023/06/27 14:09:26;;;;;;;5.30;2.10;;;25.40;46.80;;;;;;222464;1256;24183;-48
2023/06/27 14:14:31;;;;;;;4.20;1.20;;;25.00;47.80;;;;;;222079;1254;214135;-49
2023/06/27 14:19:35;;;;;;;3.70;1.90;;;24.80;47.60;;;;;;222508;1266;22515;-48
2023/06/27 14:24:39;;;;;;;3.00;1.10;;;24.70;48.10;;;;;;222128;1260;22552;-51
2023/06/27 14:29:44;;;;;;;1.90;1.20;;;24.70;47.30;;;;;;222311;1261;22511;-50
2023/06/27 14:34:48;;;;;;;1.90;1.20;;;24.50;47.70;;;;;;222641;1260;22653;-51
2023/06/27 14:39:53;;;;;;;4.30;1.20;;;24.40;47.70;;;;;;222512;1262;24253;-52
2023/06/27 14:44:58;;;;;;;6.10;1.20;;;24.60;48.10;;;;;;222592;1263;22522;-54
2023/06/27 14:50:06;;;;;;;1.40;0.80;;;24.60;48.30;;;;;;222879;1247;22759;-53
2023/06/27 14:55:12;;;;;;;1.50;0.80;;;24.70;48.60;;;;;;223123;1257;22511;-53
2023/06/27 15:00:18;;;;;;;2.80;0.80;;;24.70;48.90;;;;;;222628;1264;24195;-51
2023/06/27 15:05:23;;;;;;;1.00;0.70;;;24.60;49.10;;;;;;222364;1268;25444;-52
2023/06/27 15:10:27;;;;;;;4.30;0.80;;;25.00;51.30;;;;;;222413;1261;25460;-50
2023/06/27 15:15:32;;;;;;;0.90;0.80;;;25.30;50.30;;;;;;222360;1263;24174;-51
2023/06/27 15:20:38;;;;;;;2.00;0.90;;;25.40;52.70;;;;;;222446;1260;22518;-54
2023/06/27 15:25:43;;;;;;;3.20;0.70;;;25.40;52.00;;;;;;222155;1266;24262;-52
2023/06/27 15:30:47;;;;;;;0.90;0.70;;;25.50;51.30;;;;;;221887;1266;22557;-53
2023/06/27 15:35:52;;;;;;;1.60;0.70;;;25.50;51.20;;;;;;221644;1266;24043;-52
2023/06/27 15:40:56;;;;;;;1.70;0.70;;;25.50;50.40;;;;;;222009;1263;25531;-54
2023/06/27 15:46:03;;;;;;;0.80;0.70;;;25.40;49.90;;;;;;222019;1260;24186;-52
2023/06/27 15:51:07;;;;;;;1.90;0.90;;;25.60;50.60;;;;;;221899;1263;25446;-49
2023/06/27 15:56:11;;;;;;;1.40;0.80;;;25.60;50.70;;;;;;221839;1263;22512;-51
2023/06/27 16:01:16;;;;;;;3.40;0.50;;;25.70;50.40;;;;;;222715;1263;26553;-52
2023/06/27 16:06:21;;;;;;;1.20;0.90;;;25.70;50.20;;;;;;222540;1268;22513;-49
2023/06/27 16:11:26;;;;;;;1.20;0.60;;;25.70;50.00;;;;;;222719;1254;25557;-49
2023/06/27 16:16:30;;;;;;;1.40;0.70;;;25.70;49.70;;;;;;222456;1268;22523;-49
2023/06/27 16:21:38;;;;;;;1.70;0.90;;;25.70;49.80;;;;;;222383;1266;22561;-53
2023/06/27 16:26:44;;;;;;;7.40;1.10;;;25.70;49.40;;;;;;222240;1266;22629;-50
2023/06/27 16:31:50;;;;;;;1.60;0.80;;;25.80;50.40;;;;;;220976;1269;22526;-50
2023/06/27 16:36:57;;;;;;;2.70;1.00;;;25.60;50.80;;;;;;220432;1269;24027;-51
2023/06/27 16:42:02;;;;;;;0.90;0.70;;;25.30;50.40;;;;;;221066;1260;24167;-54
2023/06/27 16:47:10;;;;;;;2.40;0.60;;;25.20;49.00;;;;;;229111;1268;22324;-46
2023/06/27 16:52:14;;;;;;;8.70;1.20;;;25.20;47.90;;;;;;230345;1251;22315;-46
2023/06/27 16:57:18;;;;;;;4.20;0.80;;;25.20;46.60;;;;;;223868;1260;24191;-48
2023/06/27 17:02:22;;;;;;;2.40;0.60;;;25.30;46.10;;;;;;222245;1263;25492;-46
2023/06/27 17:07:27;;;;;;;1.60;0.70;;;25.20;46.10;;;;;;222291;1266;25958;-48
2023/06/27 17:12:32;;;;;;;2.80;1.00;;;24.90;45.80;;;;;;222017;1264;25481;-46
2023/06/27 17:17:36;;;;;;;1.50;0.80;;;24.90;46.00;;;;;;222266;1266;24091;-55
2023/06/27 17:22:40;;;;;;;1.40;0.90;;;24.70;46.00;;;;;;222414;1256;25249;-55
2023/06/27 17:27:46;;;;;;;3.10;1.10;;;24.60;46.20;;;;;;222450;1260;22572;-55
2023/06/27 17:32:51;;;;;;;0.80;0.70;;;24.60;46.70;;;;;;222505;1256;22557;-52
2023/06/27 17:37:55;;;;;;;1.10;0.80;;;24.30;47.40;;;;;;222187;1264;22726;-51
2023/06/27 17:43:01;;;;;;;3.80;1.40;;;24.10;48.40;;;;;;222089;1258;23885;-53
2023/06/27 17:48:06;;;;;;;4.10;1.00;;;23.90;48.10;;;;;;222439;1261;22580;-52
2023/06/27 17:53:11;;;;;;;1.90;0.70;;;23.90;48.30;;;;;;222466;1254;22505;-51
2023/06/27 17:58:16;;;;;;;1.00;0.80;;;23.80;48.30;;;;;;222643;1263;25387;-51
2023/06/27 18:03:22;;;;;;;1.70;0.90;;;23.60;48.60;;;;;;222474;1255;22511;-50
2023/06/27 18:08:30;;;;;;;3.20;1.10;;;23.50;49.00;;;;;;222611;1263;25588;-47
2023/06/27 18:13:35;;;;;;;1.50;0.70;;;23.40;49.20;;;;;;224746;1268;24148;-48
2023/06/27 18:18:41;;;;;;;2.70;1.00;;;23.50;49.30;;;;;;223061;1268;22525;-48
2023/06/27 18:23:46;;;;;;;3.60;0.90;;;23.50;49.40;;;;;;222860;1264;22650;-46
2023/06/27 18:28:52;;;;;;;2.80;1.10;;;23.50;49.80;;;;;;221863;1269;22549;-52
2023/06/27 18:34:02;;;;;;;2.10;1.10;;;23.60;50.70;;;;;;221452;1266;22642;-50
2023/06/27 18:39:09;;;;;;;2.00;1.10;;;23.40;50.90;;;;;;221521;1269;22675;-45
2023/06/27 18:44:14;;;;;;;5.60;1.10;;;23.60;50.80;;;;;;221678;1266;25293;-46
2023/06/27 18:49:21;;;;;;;4.20;0.60;;;23.80;50.70;;;;;;221702;1266;23681;-46
2023/06/27 18:54:26;;;;;;;5.30;1.10;;;23.80;50.60;;;;;;221599;1271;27579;-43
2023/06/27 18:59:32;;;;;;;2.30;1.30;;;23.90;50.50;;;;;;221523;1257;25340;-44
2023/06/27 19:04:38;;;;;;;6.70;1.10;;;23.90;50.20;;;;;;221940;1263;24261;-45
2023/06/27 19:09:44;;;;;;;8.90;1.40;;;23.80;49.80;;;;;;222363;1264;25258;-46
2023/06/27 19:14:51;;;;;;;6.80;0.80;;;23.90;49.20;;;;;;222222;1263;24305;-47
2023/06/27 19:19:57;;;;;;;13.80;2.90;;;24.10;49.60;;;;;;222548;1248;25805;-46
2023/06/27 19:25:03;;;;;;;5.50;1.20;;;24.30;49.10;;;;;;221976;1260;25377;-46
2023/06/27 19:30:10;;;;;;;9.90;1.20;;;24.30;48.50;;;;;;222455;1254;22511;-47
2023/06/27 19:35:16;;;;;;;7.40;1.10;;;24.40;48.50;;;;;;222221;1263;22652;-45
2023/06/27 19:40:21;;;;;;;3.40;1.00;;;24.50;49.20;;;;;;222129;1266;22754;-44
2023/06/27 19:45:27;;;;;;;5.40;1.00;;;24.50;49.20;;;;;;222184;1254;25453;-44
2023/06/27 19:50:33;;;;;;;4.00;1.10;;;24.50;48.80;;;;;;222270;1263;25268;-44
2023/06/27 19:55:39;;;;;;;5.80;0.90;;;24.50;48.80;;;;;;222454;1254;24190;-45
2023/06/27 20:00:46;;;;;;;7.00;0.90;;;24.60;49.10;;;;;;222440;1264;24253;-47
2023/06/27 20:05:51;;;;;;;3.80;0.70;;;24.60;48.70;;;;;;222517;1261;22624;-52
2023/06/27 20:10:56;;;;;;;7.70;0.90;;;24.50;49.80;;;;;;222851;1264;24435;-47
2023/06/27 20:16:01;;;;;;;3.90;1.30;;;24.50;49.30;;;;;;222331;1264;24209;-51
2023/06/27 20:21:07;;;;;;;16.80;2.10;;;24.50;51.50;;;;;;222751;1267;23600;-48
2023/06/27 20:26:11;;;;;;;7.70;1.70;;;24.70;50.60;;;;;;222250;1264;25926;-50
2023/06/27 20:31:16;;;;;;;4.80;1.40;;;24.80;50.80;;;;;;222215;1264;25415;-47
2023/06/27 20:36:22;;;;;;;10.10;1.30;;;24.90;50.60;;;;;;222532;1255;22515;-50
2023/06/27 20:41:26;;;;;;;9.00;1.10;;;24.90;50.90;;;;;;222300;1254;22944;-50
2023/06/27 20:46:32;;;;;;;2.90;1.20;;;24.90;50.50;;;;;;222118;1264;25654;-48
2023/06/27 20:51:38;;;;;;;7.80;1.60;;;24.90;50.50;;;;;;222561;1260;22598;-49
2023/06/27 20:56:44;;;;;;;4.80;1.90;;;24.90;53.40;;;;;;222306;1260;22527;-47
2023/06/27 21:01:48;;;;;;;8.80;2.40;;;25.00;54.20;;;;;;222414;1255;23852;-46
2023/06/27 21:06:54;;;;;;;11.20;2.50;;;24.90;54.10;;;;;;222360;1254;22582;-47
2023/06/27 21:11:58;;;;;;;13.70;2.50;;;24.90;52.90;;;;;;221980;1254;22521;-48
2023/06/27 21:17:04;;;;;;;10.00;1.80;;;24.90;54.80;;;;;;222528;1254;24218;-46
2023/06/27 21:22:09;;;;;;;11.50;2.20;;;25.00;53.70;;;;;;222306;1253;25040;-47
2023/06/27 21:27:14;;;;;;;4.30;2.00;;;24.90;53.80;;;;;;222630;1254;22523;-47
2023/06/27 21:32:19;;;;;;;6.50;1.90;;;24.90;54.30;;;;;;222152;1255;22545;-47
2023/06/27 21:37:25;;;;;;;7.80;2.10;;;24.90;54.40;;;;;;222663;1263;22570;-47
2023/06/27 21:42:31;;;;;;;7.10;1.80;;;24.90;54.10;;;;;;222204;1264;24212;-50
2023/06/27 21:47:37;;;;;;;6.60;2.20;;;24.90;54.00;;;;;;222655;1264;22776;-46
2023/06/27 21:52:41;;;;;;;5.00;1.80;;;24.90;54.10;;;;;;222339;1264;24237;-46
2023/06/27 21:57:45;;;;;;;4.80;1.80;;;24.90;54.20;;;;;;222282;1254;22645;-49
2023/06/27 22:02:50;;;;;;;7.80;1.60;;;24.90;54.60;;;;;;222356;1263;23581;-48
2023/06/27 22:07:55;;;;;;;4.60;1.90;;;24.80;54.50;;;;;;222346;1260;25498;-47
2023/06/27 22:13:00;;;;;;;5.20;1.50;;;24.70;54.90;;;;;;222444;1254;25599;-47
2023/06/27 22:18:04;;;;;;;3.90;1.50;;;24.70;54.80;;;;;;222270;1254;22515;-48
2023/06/27 22:23:09;;;;;;;3.50;1.40;;;24.70;55.30;;;;;;222235;1253;24182;-48
2023/06/27 22:28:13;;;;;;;6.00;2.00;;;24.80;55.10;;;;;;222323;1257;22522;-51
2023/06/27 22:33:17;;;;;;;4.70;1.70;;;24.90;55.10;;;;;;222432;1254;22538;-47
2023/06/27 22:38:22;;;;;;;5.90;1.60;;;24.90;56.50;;;;;;222222;1254;25447;-46
2023/06/27 22:43:26;;;;;;;3.00;1.30;;;24.90;56.10;;;;;;222235;1258;22541;-46
2023/06/27 22:48:30;;;;;;;4.00;1.40;;;24.90;56.50;;;;;;222301;1263;22755;-47
2023/06/27 22:53:43;;;;;;;2.00;1.80;;;24.90;55.60;;;;;;222229;1264;24183;-47
2023/06/27 22:58:48;;;;;;;3.00;1.20;;;24.90;55.50;;;;;;222239;1254;24097;-47
2023/06/27 23:03:53;;;;;;;1.80;1.30;;;24.90;55.50;;;;;;222287;1260;24212;-48
2023/06/27 23:08:58;;;;;;;2.30;1.50;;;24.80;55.60;;;;;;222419;1254;22651;-46
2023/06/27 23:14:03;;;;;;;1.90;1.50;;;24.80;55.40;;;;;;222386;1253;24212;-46
2023/06/27 23:19:08;;;;;;;4.20;1.80;;;24.80;55.50;;;;;;222832;1261;22516;-45
2023/06/27 23:24:12;;;;;;;3.80;1.50;;;24.80;55.10;;;;;;222302;1253;22533;-48
2023/06/27 23:29:17;;;;;;;4.20;1.50;;;24.90;55.30;;;;;;222495;1260;24209;-47
2023/06/27 23:34:23;;;;;;;1.90;1.40;;;24.90;55.40;;;;;;222455;1254;23970;-46
2023/06/27 23:39:27;;;;;;;4.00;1.30;;;24.80;55.40;;;;;;222763;1253;24188;-45
2023/06/27 23:44:32;;;;;;;4.20;1.80;;;24.80;55.60;;;;;;222391;1254;24192;-47
2023/06/27 23:49:36;;;;;;;1.80;1.60;;;24.80;55.70;;;;;;222626;1254;23925;-46
2023/06/27 23:54:41;;;;;;;2.40;1.30;;;24.70;55.70;;;;;;222217;1256;22523;-46
2023/06/27 23:59:45;;;;;;;3.90;1.30;;;24.70;56.20;;;;;;222331;1254;24222;-46
